Flight Track Log - Related Links

Times and Time Zones

All times are in EST time to prevent confusion due to time zone crossing. See the FIN717 flight status page for this flight to view local times or setup timezone preferences in your user account.

Time Position Orientation Groundspeed Altitude Reporting Facility
EST Latitude Longitude Course Direction KTS MPH feet Rate Location/Type
Sat 10:50:00 AM 60.0428 24.5737 215° Southwest  Level Estimated
Sat 10:51:00 AM 59.9511 24.4452 215° Southwest  Level Estimated
Sat 10:52:00 AM 59.8592 24.3175 215° Southwest  Level Estimated
Sat 10:53:00 AM 59.7655 24.1880 215° Southwest  Level Estimated
Sat 10:54:00 AM 59.6716 24.0593 215° Southwest  Level Estimated
Sat 10:55:00 AM 59.5776 23.9313 215° Southwest  Level Estimated
Sat 10:56:00 AM 59.4835 23.8039 215° Southwest  Level Estimated
Sat 10:57:00 AM 59.3893 23.6773 214° Southwest  Level Estimated
Sat 10:58:00 AM 59.2949 23.5515 214° Southwest  Level Estimated
Sat 10:59:00 AM 59.2004 23.4263 214° Southwest  Level Estimated
Sat 11:00:00 AM 59.1058 23.3017 214° Southwest  Level Estimated
Sat 11:01:00 AM 59.0111 23.1779 214° Southwest  Level Estimated
Sat 11:02:00 AM 58.9162 23.0548 214° Southwest  Level Estimated
Sat 11:03:00 AM 58.8213 22.9323 214° Southwest  Level Estimated
Sat 11:04:00 AM 58.7262 22.8105 214° Southwest  Level Estimated
Sat 11:05:00 AM 58.6310 22.6894 214° Southwest  Level Estimated
Sat 11:06:00 AM 58.5357 22.5689 213° Southwest  Level Estimated
Sat 11:07:00 AM 58.4403 22.4491 213° Southwest  Level Estimated
Sat 11:08:00 AM 58.3448 22.3299 213° Southwest  Level Estimated
Sat 11:09:00 AM 58.2491 22.2113 213° Southwest  Level Estimated
Sat 11:10:00 AM 58.1534 22.0935 213° Southwest  Level Estimated
Sat 11:11:00 AM 58.0575 21.9762 213° Southwest  Level Estimated
Sat 11:12:00 AM 57.9616 21.8596 213° Southwest  Level Estimated
Sat 11:13:00 AM 57.8655 21.7436 213° Southwest  Level Estimated
Sat 11:14:00 AM 57.7693 21.6282 213° Southwest  Level Estimated
Sat 11:15:00 AM 57.6731 21.5134 213° Southwest  Level Estimated
Sat 11:16:00 AM 57.5767 21.3992 212° Southwest  Level Estimated
Sat 11:17:00 AM 57.4802 21.2857 212° Southwest  Level Estimated
Sat 11:18:00 AM 57.3836 21.1727 212° Southwest  Level Estimated
Sat 11:19:00 AM 57.2869 21.0603 212° Southwest  Level Estimated
Sat 11:20:00 AM 57.1902 20.9485 212° Southwest  Level Estimated
Sat 11:21:00 AM 57.0933 20.8373 212° Southwest  Level Estimated
Sat 11:22:00 AM 56.9963 20.7267 212° Southwest  Level Estimated
Sat 11:23:00 AM 56.8992 20.6166 212° Southwest  Level Estimated
Sat 11:24:00 AM 56.8021 20.5072 212° Southwest  Level Estimated
Sat 11:25:00 AM 56.7048 20.3983 212° Southwest  Level Estimated
Sat 11:26:00 AM 56.6074 20.2899 211° Southwest  Level Estimated
Sat 11:27:00 AM 56.5100 20.1821 211° Southwest  Level Estimated
Sat 11:28:00 AM 56.4124 20.0749 211° Southwest  Level Estimated
Sat 11:29:00 AM 56.3148 19.9682 211° Southwest  Level Estimated
Sat 11:30:00 AM 56.2170 19.8620 211° Southwest  Level Estimated
Sat 11:31:00 AM 56.1192 19.7564 211° Southwest  Level Estimated
Sat 11:32:00 AM 56.0213 19.6514 211° Southwest  Level Estimated
Sat 11:33:00 AM 55.9233 19.5468 211° Southwest  Level Estimated
Sat 11:34:00 AM 55.8252 19.4428 211° Southwest  Level Estimated
Sat 11:35:00 AM 55.7271 19.3393 211° Southwest  Level Estimated
Sat 11:36:00 AM 55.6288 19.2364 211° Southwest  Level Estimated
Sat 11:37:00 AM 55.5304 19.1339 211° Southwest  Level Estimated
Sat 11:38:00 AM 55.4320 19.0320 210° Southwest  Level Estimated
Sat 11:39:00 AM 55.3335 18.9305 210° Southwest  Level Estimated
Sat 11:40:00 AM 55.2349 18.8296 210° Southwest  Level Estimated
Sat 11:41:00 AM 55.1362 18.7292 210° Southwest  Level Estimated
Sat 11:42:00 AM 55.0374 18.6293 210° Southwest  Level Estimated
Sat 11:43:00 AM 54.9386 18.5298 210° Southwest  Level Estimated
Sat 11:44:00 AM 54.8397 18.4309 210° Southwest  Level Estimated
Sat 11:45:00 AM 54.7407 18.3324 210° Southwest  Level Estimated
Sat 11:46:00 AM 54.6425 18.2353 210° Southwest  Level Estimated
Sat 11:47:00 AM 54.5443 18.1388 210° Southwest  Level Estimated
Sat 11:48:00 AM 54.4460 18.0426 210° Southwest  Level Estimated
Sat 11:49:00 AM 54.3476 17.9470 210° Southwest  Level Estimated
Sat 11:50:00 AM 54.2492 17.8517 209° Southwest  Level Estimated
Sat 11:51:00 AM 54.1507 17.7570 209° Southwest  Level Estimated
Sat 11:52:00 AM 54.0521 17.6627 209° Southwest  Level Estimated
Sat 11:53:00 AM 53.9534 17.5688 209° Southwest  Level Estimated
Sat 11:54:00 AM 53.8546 17.4754 209° Southwest  Level Estimated
Sat 11:55:00 AM 53.7558 17.3825 209° Southwest  Level Estimated
Sat 11:56:00 AM 53.6569 17.2899 209° Southwest  Level Estimated
Sat 11:57:00 AM 53.5580 17.1978 209° Southwest  Level Estimated
Sat 11:58:00 AM 53.4589 17.1061 209° Southwest  Level Estimated
Sat 11:59:00 AM 53.3598 17.0149 209° Southwest  Level Estimated
Sat 12:00:00 PM 53.2607 16.9241 209° Southwest  Level Estimated
Sat 12:01:00 PM 53.1614 16.8337 209° Southwest  Level Estimated
Sat 12:02:00 PM 53.0621 16.7437 209° Southwest  Level Estimated
Sat 12:03:00 PM 52.9627 16.6541 209° Southwest  Level Estimated
Sat 12:04:00 PM 52.8633 16.5650 208° Southwest  Level Estimated
Sat 12:05:00 PM 52.7638 16.4762 208° Southwest  Level Estimated
Sat 12:06:00 PM 52.6642 16.3878 208° Southwest  Level Estimated
Sat 12:07:00 PM 52.5646 16.2999 208° Southwest  Level Estimated
Sat 12:08:00 PM 52.4649 16.2124 208° Southwest  Level Estimated
Sat 12:09:00 PM 52.3651 16.1252 208° Southwest  Level Estimated
Sat 12:10:00 PM 52.2653 16.0384 208° Southwest  Level Estimated
Sat 12:11:00 PM 52.1654 15.9521 208° Southwest  Level Estimated
Sat 12:12:00 PM 52.0654 15.8661 208° Southwest  Level Estimated
Sat 12:13:00 PM 51.9654 15.7805 208° Southwest  Level Estimated
Sat 12:14:00 PM 51.8653 15.6953 208° Southwest  Level Estimated
Sat 12:15:00 PM 51.7652 15.6104 208° Southwest  Level Estimated
Sat 12:16:00 PM 51.6650 15.5260 208° Southwest  Level Estimated
Sat 12:17:00 PM 51.5647 15.4419 208° Southwest  Level Estimated
Sat 12:18:00 PM 51.4644 15.3582 207° Southwest  Level Estimated
Sat 12:19:00 PM 51.3640 15.2748 207° Southwest  Level Estimated
Sat 12:20:00 PM 51.2636 15.1918 207° Southwest  Level Estimated
Sat 12:21:00 PM 51.1631 15.1092 207° Southwest  Level Estimated
Sat 12:22:00 PM 51.0625 15.0269 207° Southwest  Level Estimated
Sat 12:23:00 PM 50.9619 14.9450 207° Southwest  Level Estimated
Sat 12:24:00 PM 50.8613 14.8635 207° Southwest  Level Estimated
Sat 12:25:00 PM 50.7605 14.7823 207° Southwest  Level Estimated
Sat 12:26:00 PM 50.6597 14.7014 207° Southwest  Level Estimated
Sat 12:27:00 PM 50.5589 14.6209 207° Southwest  Level Estimated
Sat 12:28:00 PM 50.4580 14.5407 207° Southwest  Level Estimated
Sat 12:29:00 PM 50.3571 14.4609 207° Southwest  Level Estimated
Sat 12:30:00 PM 50.2560 14.3814 207° Southwest  Level Estimated
Sat 12:31:00 PM 50.1550 14.3023 207° Southwest  Level Estimated
Sat 12:32:00 PM 50.1008 14.2600 207° Southwest  Level Estimated
Sat 12:33:00 PM 50.1008 14.2600 North  Level Estimated
Sat 12:34:00 PM 50.1008 14.2600 North  Level Estimated
Sat 12:35:00 PM 50.1008 14.2600 North  Level Estimated
Sat 12:36:00 PM 50.1008 14.2600 North  Level Estimated
Sat 12:37:00 PM 50.1008 14.2600 North  Level Estimated
Sat 12:38:00 PM 50.1008 14.2600 North  Level Estimated
Sat 12:39:00 PM 50.1008 14.2600 North  Level Estimated
Sat 12:40:00 PM 50.1008 14.2600 North  Level Estimated
Sat 12:41:00 PM 50.1008 14.2600 North  Level Estimated
Sat 12:42:00 PM 50.1008 14.2600 North  Level Estimated
Sat 12:43:00 PM 50.1008 14.2600 North  Level Estimated
Sat 12:44:00 PM 50.1008 14.2600 North  Level Estimated
Sat 12:45:00 PM 50.1008 14.2600 North  Level Estimated

Login

Don't have an account? Register now (free) for customized features, flight alerts, and more!